createdAt,value
2023-09-11T00:02:06.085Z,51.14
2023-09-11T00:04:33.249Z,51.12
2023-09-11T00:07:02.838Z,50.46
2023-09-11T00:09:30.305Z,50.59
2023-09-11T00:11:58.984Z,50.48
2023-09-11T00:14:27.429Z,50.65
2023-09-11T00:16:54.872Z,50.39
2023-09-11T00:19:22.095Z,50.06
2023-09-11T00:21:49.367Z,50.01
2023-09-11T00:24:16.621Z,49.91
2023-09-11T00:26:43.816Z,49.80
2023-09-11T00:32:15.226Z,49.26
2023-09-11T00:34:42.621Z,49.22
2023-09-11T00:37:09.777Z,49.06
2023-09-11T00:39:40.024Z,49.04
2023-09-11T00:42:07.418Z,48.95
2023-09-11T00:44:35.894Z,48.29
2023-09-11T00:47:03.573Z,48.75
2023-09-11T00:49:31.509Z,48.72
2023-09-11T00:51:58.836Z,47.92
2023-09-11T00:54:27.652Z,48.29
2023-09-11T00:56:55.426Z,48.38
2023-09-11T00:59:22.612Z,48.34
2023-09-11T01:01:50.672Z,47.96
2023-09-11T01:04:18.167Z,48.21
2023-09-11T01:06:48.120Z,48.30
2023-09-11T01:09:15.389Z,48.46
2023-09-11T01:11:42.517Z,48.48
2023-09-11T01:14:09.701Z,48.64
2023-09-11T01:17:15.022Z,48.76
2023-09-11T01:19:53.845Z,48.99
2023-09-11T01:22:39.781Z,49.06
2023-09-11T01:25:13.319Z,49.45
2023-09-11T01:28:18.321Z,49.35
2023-09-11T01:30:47.696Z,48.84
2023-09-11T01:33:15.618Z,49.10
2023-09-11T01:35:42.967Z,49.47
2023-09-11T01:38:10.501Z,49.48
2023-09-11T01:40:45.327Z,48.92
2023-09-11T01:43:15.208Z,49.66
2023-09-11T01:45:43.387Z,49.45
2023-09-11T01:48:12.483Z,49.27
2023-09-11T01:50:41.939Z,49.39
2023-09-11T01:53:09.900Z,49.33
2023-09-11T01:55:37.979Z,49.48
2023-09-11T01:58:05.226Z,49.13
2023-09-11T02:00:36.051Z,49.34
2023-09-11T02:03:03.420Z,49.77
2023-09-11T02:05:30.859Z,49.73
2023-09-11T02:07:58.429Z,49.60
2023-09-11T02:10:25.610Z,49.80
2023-09-11T02:12:53.060Z,49.84
2023-09-11T02:15:23.543Z,50.34
2023-09-11T02:17:50.874Z,50.06
2023-09-11T02:20:19.671Z,49.80
2023-09-11T02:22:47.063Z,49.79
2023-09-11T02:25:14.456Z,49.75
2023-09-11T02:27:41.713Z,49.98
2023-09-11T02:30:10.465Z,50.23
2023-09-11T02:32:38.445Z,50.41
2023-09-11T02:35:05.980Z,50.20
2023-09-11T02:37:33.354Z,50.04
2023-09-11T02:40:01.289Z,50.36
2023-09-11T02:42:28.578Z,50.46
2023-09-11T02:44:55.681Z,50.10
2023-09-11T02:47:23.023Z,50.79
2023-09-11T02:49:50.309Z,50.48
2023-09-11T02:52:17.551Z,50.84
2023-09-11T02:54:44.730Z,51.40
2023-09-11T02:57:11.993Z,51.18
2023-09-11T02:59:39.632Z,51.04
2023-09-11T03:02:07.209Z,51.55
2023-09-11T03:04:34.411Z,51.52
2023-09-11T03:07:01.784Z,51.52
2023-09-11T03:09:29.210Z,51.49
2023-09-11T03:11:57.670Z,51.51
2023-09-11T03:14:24.995Z,51.39
2023-09-11T03:16:53.223Z,51.57
2023-09-11T03:19:20.375Z,51.45
2023-09-11T03:21:47.569Z,51.11
2023-09-11T03:24:15.122Z,51.58
2023-09-11T03:26:42.452Z,51.55
2023-09-11T03:29:10.770Z,51.67
2023-09-11T03:31:38.050Z,51.65
2023-09-11T03:34:05.640Z,51.46
2023-09-11T03:36:34.121Z,51.86
2023-09-11T03:39:01.289Z,51.67
2023-09-11T03:41:29.004Z,51.66
2023-09-11T03:43:56.356Z,51.49
2023-09-11T03:46:24.324Z,51.81
2023-09-11T03:48:51.498Z,51.46
2023-09-11T03:51:20.193Z,51.36
2023-09-11T03:53:47.846Z,51.71
2023-09-11T03:56:21.318Z,51.98
2023-09-11T03:58:49.550Z,51.89
2023-09-11T04:01:18.619Z,51.81
2023-09-11T04:03:46.350Z,51.57
2023-09-11T04:06:13.655Z,51.65
2023-09-11T04:08:40.873Z,51.74
2023-09-11T04:11:08.127Z,51.99
2023-09-11T04:13:35.486Z,51.70
2023-09-11T04:16:02.939Z,51.99
2023-09-11T04:18:30.965Z,51.91
2023-09-11T04:21:05.676Z,51.91
2023-09-11T04:23:36.061Z,52.22
2023-09-11T04:26:03.842Z,52.11
2023-09-11T04:28:31.287Z,51.82
2023-09-11T04:30:58.453Z,52.24
2023-09-11T04:33:26.121Z,52.29
2023-09-11T04:35:53.924Z,52.18
2023-09-11T04:38:21.547Z,52.19
2023-09-11T04:40:48.921Z,52.27
2023-09-11T04:43:16.380Z,52.52
2023-09-11T04:45:43.804Z,52.55
2023-09-11T04:48:11.433Z,52.43
2023-09-11T04:50:38.870Z,52.70
2023-09-11T04:53:06.239Z,52.56
2023-09-11T04:55:33.593Z,52.14
2023-09-11T04:58:00.911Z,52.30
2023-09-11T05:00:28.251Z,52.43
2023-09-11T05:02:55.796Z,52.13
2023-09-11T05:05:23.192Z,52.12
2023-09-11T05:07:51.429Z,52.21
2023-09-11T05:10:19.772Z,53.64
2023-09-11T05:12:48.215Z,53.85
2023-09-11T05:15:15.732Z,53.96
2023-09-11T05:17:43.012Z,54.49
2023-09-11T05:20:11.412Z,53.96
2023-09-11T05:22:39.773Z,54.45
2023-09-11T05:25:07.298Z,54.91
2023-09-11T05:27:34.423Z,54.61
2023-09-11T05:30:01.586Z,55.01
2023-09-11T05:32:28.731Z,55.04
2023-09-11T05:34:56.013Z,55.24
2023-09-11T05:37:23.206Z,55.42
2023-09-11T05:39:50.417Z,55.58
2023-09-11T05:42:17.498Z,55.86
2023-09-11T05:44:45.168Z,56.31
2023-09-11T05:47:12.537Z,56.04
2023-09-11T05:49:39.779Z,55.96
2023-09-11T05:52:08.110Z,56.14
2023-09-11T05:54:35.422Z,56.41
2023-09-11T05:57:04.003Z,56.95
2023-09-11T05:59:31.252Z,56.39
2023-09-11T06:01:58.498Z,55.97
2023-09-11T06:04:25.782Z,56.49
2023-09-11T06:06:52.928Z,55.88
2023-09-11T06:09:20.148Z,56.06
2023-09-11T06:11:47.345Z,55.64
2023-09-11T06:14:14.585Z,55.48
2023-09-11T06:16:43.114Z,55.34
2023-09-11T06:19:10.481Z,55.42
2023-09-11T06:21:37.801Z,55.34
2023-09-11T06:24:08.387Z,54.52
2023-09-11T06:26:41.064Z,54.80
2023-09-11T06:29:08.385Z,54.70
2023-09-11T06:31:36.622Z,54.46
2023-09-11T06:34:03.921Z,54.50
2023-09-11T06:36:31.026Z,54.50
2023-09-11T06:38:58.424Z,54.31
2023-09-11T06:41:25.687Z,53.97
2023-09-11T06:43:54.530Z,54.15
2023-09-11T06:46:25.414Z,53.90
2023-09-11T06:48:52.773Z,53.69
2023-09-11T06:51:19.977Z,53.64
2023-09-11T06:53:47.374Z,53.17
2023-09-11T06:56:14.616Z,53.53
2023-09-11T06:58:43.679Z,53.45
2023-09-11T07:01:10.973Z,53.16
2023-09-11T07:03:38.357Z,52.82
2023-09-11T07:06:05.701Z,52.34
2023-09-11T07:08:33.099Z,52.95
2023-09-11T07:11:00.305Z,52.60
2023-09-11T07:13:28.282Z,52.59
2023-09-11T07:16:00.424Z,51.91
2023-09-11T07:18:28.667Z,52.10
2023-09-11T07:20:56.105Z,51.36
2023-09-11T07:23:25.163Z,51.42
2023-09-11T07:25:56.063Z,51.24
2023-09-11T07:28:26.145Z,50.85
2023-09-11T07:30:53.766Z,50.89
2023-09-11T07:33:23.326Z,50.84
2023-09-11T07:35:50.894Z,50.34
2023-09-11T07:38:18.137Z,50.38
2023-09-11T07:40:48.513Z,50.44
2023-09-11T07:43:15.989Z,50.31
2023-09-11T07:45:44.241Z,50.20
2023-09-11T07:48:11.643Z,50.37
2023-09-11T07:50:44.932Z,50.06
2023-09-11T07:53:12.073Z,50.24
2023-09-11T07:55:39.172Z,50.31
2023-09-11T07:58:06.375Z,50.50
2023-09-11T08:00:33.667Z,50.17
2023-09-11T08:03:01.298Z,50.03
2023-09-11T08:05:28.860Z,49.71
2023-09-11T08:07:56.363Z,49.62
2023-09-11T08:10:23.673Z,49.48
2023-09-11T08:12:51.071Z,49.30
2023-09-11T08:15:18.428Z,48.65
2023-09-11T08:17:45.674Z,47.94
2023-09-11T08:20:13.261Z,47.82
2023-09-11T08:22:43.824Z,47.34
2023-09-11T08:25:12.225Z,46.87
2023-09-11T08:27:39.568Z,45.89
2023-09-11T08:30:07.952Z,45.67
2023-09-11T08:32:36.066Z,45.48
2023-09-11T08:35:04.103Z,45.00
2023-09-11T08:37:32.176Z,44.20
2023-09-11T08:39:59.856Z,44.02
2023-09-11T08:42:27.399Z,43.46
2023-09-11T08:44:54.830Z,43.48
2023-09-11T08:47:31.764Z,43.04
2023-09-11T08:50:07.859Z,42.73
2023-09-11T08:52:37.705Z,42.91
2023-09-11T08:55:10.898Z,41.88
2023-09-11T08:57:45.952Z,41.25
2023-09-11T09:00:16.611Z,41.93
2023-09-11T09:02:45.105Z,41.67
2023-09-11T09:05:14.701Z,41.94
2023-09-11T09:07:44.574Z,41.32
2023-09-11T09:10:13.087Z,41.49
2023-09-11T09:12:41.810Z,40.83
2023-09-11T09:15:09.980Z,41.65
2023-09-11T09:17:37.368Z,41.83
2023-09-11T09:20:05.873Z,42.58
2023-09-11T09:22:33.117Z,42.05
2023-09-11T09:25:00.464Z,41.46
2023-09-11T09:27:32.329Z,41.99
2023-09-11T09:30:02.105Z,42.14
2023-09-11T09:32:34.845Z,41.45
2023-09-11T09:35:02.185Z,41.40
2023-09-11T09:37:30.810Z,41.97
2023-09-11T09:39:58.233Z,41.88
2023-09-11T09:42:25.570Z,41.86
2023-09-11T09:44:55.508Z,41.62
2023-09-11T09:47:24.008Z,41.96
2023-09-11T09:49:58.744Z,41.24
2023-09-11T09:52:34.097Z,40.66
2023-09-11T09:55:06.334Z,41.79
2023-09-11T09:57:33.757Z,40.69
2023-09-11T10:00:03.216Z,41.71
2023-09-11T10:02:34.232Z,41.50
2023-09-11T10:05:07.576Z,40.45
2023-09-11T10:07:39.317Z,40.51
2023-09-11T10:10:24.863Z,40.04
2023-09-11T10:13:17.765Z,39.25
2023-09-11T10:15:46.089Z,39.25
2023-09-11T10:18:14.507Z,39.40
2023-09-11T10:20:42.437Z,39.14
2023-09-11T10:23:10.532Z,38.98
2023-09-11T10:25:45.507Z,38.68
2023-09-11T10:28:30.369Z,38.25
2023-09-11T10:31:21.838Z,37.54
2023-09-11T10:33:56.481Z,38.05
2023-09-11T10:36:27.717Z,38.57
2023-09-11T10:39:00.272Z,37.91
2023-09-11T10:41:28.415Z,37.98
2023-09-11T10:43:55.834Z,38.21
2023-09-11T10:46:23.113Z,39.22
2023-09-11T10:48:53.539Z,38.33
2023-09-11T10:51:21.343Z,38.06
2023-09-11T10:53:50.969Z,38.57
2023-09-11T10:56:18.705Z,37.89
2023-09-11T10:58:46.037Z,38.18
2023-09-11T11:01:20.590Z,38.76
2023-09-11T11:03:54.488Z,38.53
2023-09-11T11:06:44.399Z,37.45
2023-09-11T11:09:37.440Z,36.45
2023-09-11T11:12:16.047Z,37.33
2023-09-11T11:14:45.251Z,37.60
2023-09-11T11:17:18.123Z,36.77
2023-09-11T11:20:01.506Z,36.67
2023-09-11T11:22:40.856Z,36.58
2023-09-11T11:25:12.145Z,35.92
2023-09-11T11:27:43.719Z,36.61
2023-09-11T11:30:11.541Z,35.61
2023-09-11T11:32:42.554Z,36.64
2023-09-11T11:35:14.690Z,38.56
2023-09-11T11:37:46.417Z,37.61
2023-09-11T11:40:15.106Z,37.32
2023-09-11T11:42:43.016Z,36.74
2023-09-11T11:45:11.134Z,37.19
2023-09-11T11:47:38.592Z,37.17
2023-09-11T11:50:13.815Z,38.50
2023-09-11T11:52:46.791Z,37.53
2023-09-11T11:55:22.690Z,37.33
2023-09-11T11:57:56.471Z,37.58
2023-09-11T12:00:24.200Z,37.08
2023-09-11T12:03:12.286Z,36.60
2023-09-11T12:05:47.692Z,37.14
2023-09-11T12:08:17.397Z,38.83
2023-09-11T12:10:52.611Z,38.77
2023-09-11T12:13:38.788Z,39.79
2023-09-11T12:16:25.962Z,40.12
2023-09-11T12:18:59.892Z,39.69
2023-09-11T12:21:27.672Z,40.13
2023-09-11T12:23:56.627Z,41.81
2023-09-11T12:26:24.580Z,41.06
2023-09-11T12:28:52.071Z,41.84
2023-09-11T12:31:21.226Z,42.00
2023-09-11T12:34:01.942Z,41.52
2023-09-11T12:36:31.066Z,41.51
2023-09-11T12:39:08.805Z,42.00
2023-09-11T12:41:37.609Z,42.14
2023-09-11T12:44:06.569Z,42.14
2023-09-11T12:46:40.441Z,42.71
2023-09-11T12:49:09.530Z,43.02
2023-09-11T12:51:38.623Z,42.33
2023-09-11T12:54:06.792Z,42.25
2023-09-11T12:56:36.856Z,42.73
2023-09-11T12:59:07.177Z,41.70
2023-09-11T13:01:44.097Z,41.74
2023-09-11T13:04:14.776Z,42.34
2023-09-11T13:06:46.433Z,42.11
2023-09-11T13:09:21.831Z,42.75
2023-09-11T13:11:51.539Z,43.46
2023-09-11T13:14:24.786Z,43.89
2023-09-11T13:16:52.959Z,42.78
2023-09-11T13:19:20.210Z,42.64
2023-09-11T13:21:47.470Z,42.43
2023-09-11T13:24:14.584Z,43.08
2023-09-11T13:26:43.957Z,42.75
2023-09-11T13:29:11.552Z,42.33
2023-09-11T13:31:38.797Z,42.28
2023-09-11T13:34:06.389Z,43.50
2023-09-11T13:36:33.743Z,43.69
2023-09-11T13:39:05.189Z,44.15
2023-09-11T13:41:34.249Z,43.78
2023-09-11T13:44:02.632Z,44.54
2023-09-11T13:46:30.527Z,43.65
2023-09-11T13:48:57.811Z,44.81
2023-09-11T13:51:26.680Z,44.66
2023-09-11T13:53:54.065Z,43.98
2023-09-11T13:56:23.926Z,45.00
2023-09-11T13:58:51.283Z,45.05
2023-09-11T14:01:18.504Z,45.66
2023-09-11T14:03:47.385Z,46.67
2023-09-11T14:06:14.819Z,47.83
2023-09-11T14:08:43.851Z,47.33
2023-09-11T14:11:11.709Z,48.43
2023-09-11T14:13:41.580Z,48.44
2023-09-11T14:16:08.932Z,49.52
2023-09-11T14:18:37.003Z,48.85
2023-09-11T14:21:04.725Z,48.46
2023-09-11T14:23:32.685Z,49.14
2023-09-11T14:26:00.864Z,51.36
2023-09-11T14:28:28.038Z,49.90
2023-09-11T14:30:55.360Z,49.83
2023-09-11T14:33:22.715Z,50.45
2023-09-11T14:35:50.198Z,49.13
2023-09-11T14:38:17.432Z,49.08
2023-09-11T14:40:44.894Z,48.75
2023-09-11T14:43:12.328Z,47.96
2023-09-11T14:45:40.231Z,48.29
2023-09-11T14:48:07.544Z,47.68
2023-09-11T14:50:34.916Z,48.35
2023-09-11T14:53:02.212Z,48.28
2023-09-11T14:55:30.660Z,47.45
2023-09-11T14:57:57.880Z,47.34
2023-09-11T15:00:29.261Z,46.75
2023-09-11T15:02:56.803Z,46.94
2023-09-11T15:05:24.597Z,48.01
2023-09-11T15:07:52.041Z,47.06
2023-09-11T15:10:20.395Z,47.41
2023-09-11T15:12:48.544Z,46.37
2023-09-11T15:15:16.059Z,47.02
2023-09-11T15:17:45.067Z,46.47
2023-09-11T15:20:12.811Z,47.01
2023-09-11T15:22:40.004Z,46.91
2023-09-11T15:25:07.518Z,46.65
2023-09-11T15:27:35.093Z,46.45
2023-09-11T15:30:04.277Z,47.15
2023-09-11T15:32:33.409Z,47.63
2023-09-11T15:35:00.814Z,47.63
2023-09-11T15:37:29.295Z,48.51
2023-09-11T15:39:58.908Z,47.26
2023-09-11T15:42:26.699Z,46.12
2023-09-11T15:44:55.248Z,45.91
2023-09-11T15:47:22.756Z,47.38
2023-09-11T15:49:49.970Z,47.41
2023-09-11T15:52:18.469Z,46.82
2023-09-11T15:54:46.022Z,47.92
2023-09-11T15:57:15.630Z,47.44
2023-09-11T15:59:43.538Z,48.13
2023-09-11T16:02:10.994Z,49.23
2023-09-11T16:04:38.569Z,48.70
2023-09-11T16:07:06.448Z,48.80
2023-09-11T16:09:33.824Z,48.95
2023-09-11T16:12:03.285Z,48.41
2023-09-11T16:14:30.924Z,48.50
2023-09-11T16:16:59.500Z,47.88
2023-09-11T16:19:27.655Z,47.78
2023-09-11T16:21:55.467Z,47.88
2023-09-11T16:24:27.982Z,46.86
2023-09-11T16:27:02.356Z,45.95
2023-09-11T16:29:29.743Z,46.79
2023-09-11T16:31:56.919Z,47.29
2023-09-11T16:34:25.740Z,47.58
2023-09-11T16:36:53.551Z,47.57
2023-09-11T16:39:23.630Z,47.09
2023-09-11T16:41:51.194Z,47.23
2023-09-11T16:44:19.721Z,47.53
2023-09-11T16:46:50.441Z,47.71
2023-09-11T16:49:25.478Z,48.64
2023-09-11T16:51:53.074Z,48.19
2023-09-11T16:54:20.511Z,48.17
2023-09-11T16:56:49.712Z,48.61
2023-09-11T16:59:17.302Z,49.32
2023-09-11T17:01:48.171Z,49.44
2023-09-11T17:04:17.948Z,48.46
2023-09-11T17:06:47.070Z,49.35
2023-09-11T17:09:15.108Z,49.33
2023-09-11T17:11:42.412Z,49.91
2023-09-11T17:14:11.151Z,50.13
2023-09-11T17:16:38.915Z,51.23
2023-09-11T17:19:06.268Z,52.88
2023-09-11T17:21:33.663Z,52.47
2023-09-11T17:24:03.600Z,52.51
2023-09-11T17:26:31.249Z,52.81
2023-09-11T17:28:58.777Z,52.93
2023-09-11T17:31:26.053Z,53.84
2023-09-11T17:33:53.648Z,53.22
2023-09-11T17:36:23.117Z,52.97
2023-09-11T17:38:51.505Z,53.88
2023-09-11T17:41:19.021Z,54.56
2023-09-11T17:43:46.253Z,55.35
2023-09-11T17:46:16.435Z,57.17
2023-09-11T17:48:44.409Z,56.08
2023-09-11T17:51:12.795Z,55.72
2023-09-11T17:53:40.379Z,56.15
2023-09-11T17:56:07.598Z,56.17
2023-09-11T17:58:34.769Z,55.38
2023-09-11T18:01:02.004Z,55.81
2023-09-11T18:03:30.323Z,55.30
2023-09-11T18:06:00.884Z,55.78
2023-09-11T18:08:32.049Z,55.81
2023-09-11T18:10:59.674Z,56.08
2023-09-11T18:13:28.195Z,54.85
2023-09-11T18:15:56.575Z,55.78
2023-09-11T18:18:25.633Z,56.67
2023-09-11T18:20:53.694Z,56.68
2023-09-11T18:23:21.389Z,57.50
2023-09-11T18:25:49.490Z,56.72
2023-09-11T18:28:17.126Z,56.59
2023-09-11T18:30:46.378Z,58.58
2023-09-11T18:33:13.804Z,57.99
2023-09-11T18:35:41.309Z,58.18
2023-09-11T18:38:08.619Z,57.97
2023-09-11T18:40:37.278Z,58.13
2023-09-11T18:43:06.016Z,56.94
2023-09-11T18:45:33.452Z,56.51
2023-09-11T18:48:01.084Z,56.77
2023-09-11T18:50:34.110Z,55.56
2023-09-11T18:53:01.769Z,56.01
2023-09-11T18:55:30.146Z,56.76
2023-09-11T18:57:57.790Z,56.69
2023-09-11T19:00:25.130Z,55.85
2023-09-11T19:02:52.674Z,56.11
2023-09-11T19:05:22.199Z,55.76
2023-09-11T19:07:52.041Z,55.76
2023-09-11T19:10:19.565Z,55.22
2023-09-11T19:12:46.748Z,55.01
2023-09-11T19:15:14.228Z,55.64
2023-09-11T19:17:42.261Z,56.48
2023-09-11T19:20:10.763Z,56.18
2023-09-11T19:22:40.773Z,55.82
2023-09-11T19:25:11.209Z,56.62
2023-09-11T19:27:40.071Z,55.47
2023-09-11T19:30:08.234Z,55.59
2023-09-11T19:32:37.624Z,55.75
2023-09-11T19:35:06.663Z,55.88
2023-09-11T19:37:37.286Z,55.50
2023-09-11T19:40:05.649Z,55.73
2023-09-11T19:42:33.239Z,56.41
2023-09-11T19:45:00.900Z,56.64
2023-09-11T19:47:32.926Z,56.06
2023-09-11T19:50:02.688Z,56.61
2023-09-11T19:52:29.967Z,56.29
2023-09-11T19:54:59.729Z,56.23
2023-09-11T19:57:27.892Z,56.85
2023-09-11T19:59:56.014Z,55.71
2023-09-11T20:02:23.443Z,56.32
2023-09-11T20:04:50.761Z,56.07
2023-09-11T20:07:18.672Z,56.69
2023-09-11T20:09:46.073Z,58.19
2023-09-11T20:12:16.881Z,57.35
2023-09-11T20:14:44.285Z,56.79
2023-09-11T20:17:11.445Z,57.16
2023-09-11T20:19:39.609Z,57.76
2023-09-11T20:22:09.758Z,57.02
2023-09-11T20:24:37.188Z,57.27
2023-09-11T20:27:04.798Z,56.67
2023-09-11T20:29:33.670Z,56.32
2023-09-11T20:32:01.270Z,55.76
2023-09-11T20:34:29.367Z,55.91
2023-09-11T20:36:56.720Z,56.10
2023-09-11T20:39:27.870Z,55.56
2023-09-11T20:41:55.287Z,55.04
2023-09-11T20:44:22.584Z,55.09
2023-09-11T20:46:50.274Z,54.87
2023-09-11T20:49:17.505Z,54.78
2023-09-11T20:51:44.752Z,54.58
2023-09-11T20:54:13.180Z,54.49
2023-09-11T20:56:41.955Z,55.17
2023-09-11T20:59:09.383Z,54.56
2023-09-11T21:01:36.707Z,54.58
2023-09-11T21:04:07.495Z,54.93
2023-09-11T21:06:39.769Z,55.51
2023-09-11T21:09:07.060Z,55.26
2023-09-11T21:11:34.763Z,55.09
2023-09-11T21:14:02.700Z,54.55
2023-09-11T21:16:35.721Z,54.55
2023-09-11T21:19:04.119Z,54.34
2023-09-11T21:21:33.224Z,54.50
2023-09-11T21:24:00.609Z,54.33
2023-09-11T21:26:29.108Z,54.53
2023-09-11T21:28:56.512Z,54.07
2023-09-11T21:31:23.850Z,54.37
2023-09-11T21:33:52.507Z,53.95
2023-09-11T21:36:19.819Z,54.31
2023-09-11T21:38:47.246Z,54.28
2023-09-11T21:41:16.530Z,53.93
2023-09-11T21:43:45.366Z,53.91
2023-09-11T21:46:13.442Z,53.69
2023-09-11T21:48:43.734Z,53.97
2023-09-11T21:51:11.295Z,53.98
2023-09-11T21:53:40.923Z,54.02
2023-09-11T21:56:08.534Z,54.07
2023-09-11T21:58:36.924Z,53.94
2023-09-11T22:01:04.601Z,53.71
2023-09-11T22:03:31.869Z,53.63
2023-09-11T22:05:59.253Z,53.83
2023-09-11T22:08:26.604Z,53.61
2023-09-11T22:10:54.806Z,53.93
2023-09-11T22:13:23.926Z,53.48
2023-09-11T22:15:51.432Z,53.47
2023-09-11T22:18:20.552Z,53.82
2023-09-11T22:20:48.041Z,53.83
2023-09-11T22:23:16.305Z,53.29
2023-09-11T22:25:43.446Z,53.19
2023-09-11T22:28:13.593Z,53.11
2023-09-11T22:30:41.057Z,53.46
2023-09-11T22:33:08.445Z,53.35
2023-09-11T22:35:48.948Z,53.80
2023-09-11T22:38:24.776Z,53.31
2023-09-11T22:40:52.017Z,52.74
2023-09-11T22:43:19.307Z,52.51
2023-09-11T22:45:46.514Z,52.22
2023-09-11T22:48:19.360Z,52.44
2023-09-11T22:50:46.883Z,52.23
2023-09-11T22:53:14.125Z,52.10
2023-09-11T22:55:41.421Z,52.18
2023-09-11T22:58:10.238Z,52.44
2023-09-11T23:00:41.907Z,51.89
2023-09-11T23:03:11.454Z,52.28
2023-09-11T23:05:40.214Z,52.01
2023-09-11T23:08:07.482Z,52.46
2023-09-11T23:10:34.869Z,52.13
2023-09-11T23:13:02.146Z,52.43
2023-09-11T23:15:32.824Z,52.98
2023-09-11T23:18:00.249Z,53.29
2023-09-11T23:20:27.610Z,53.43
2023-09-11T23:22:54.888Z,53.39
2023-09-11T23:25:22.137Z,53.19
2023-09-11T23:27:49.472Z,53.47
2023-09-11T23:30:17.281Z,53.47
2023-09-11T23:32:44.683Z,53.40
2023-09-11T23:35:12.049Z,53.71
2023-09-11T23:37:39.303Z,53.57
2023-09-11T23:40:10.856Z,53.23
2023-09-11T23:42:38.349Z,53.53
2023-09-11T23:45:06.818Z,53.65
2023-09-11T23:47:34.308Z,53.52
2023-09-11T23:50:01.707Z,53.92
2023-09-11T23:52:29.501Z,53.38
2023-09-11T23:54:56.747Z,53.76
2023-09-11T23:57:23.947Z,53.43
2023-09-11T23:59:51.119Z,53.71
